Indianapolis, Indiana
Traffic Map
Current Weather Conditions
Indianapolis, Indiana
Scattered Clouds
Scattered Clouds
63°
Feels Like: 63°
Wind Chill: 63° Ceiling: Unl
Heat Index: 63° Visibility: 10mi
Dew Point: 38° Wind: 0mph
Humidity: 40% Direction: ° ()
Pressure: 30.24in Gusts: 0mph
Raw Report DataKIND 201554Z 00000KT 10SM SCT250 17/03 A3024 RMK AO2 SLP239 T01720033
Traffic Incident Summary
Active as of:
Severity:
Category:
InformationThere was an issue retrieving the traffic information for this location. Please try a different location or try again shortly.
Advertisements
At Last! Intellicast now available for iPhone and Android